Current | Forecast
Updated: 12:00 PM JST on April 26, 2018
Observed at Saga Airport, Japan
Temperature 70°F
Humidity 35%
Dew Point 41°F
Wind NE at 14 mph
Pressure 29.92 in (Steady)
Conditions Clear
Visibility -
UV N/A
Clouds
Yesterday's Maximum 63°F
Yesterday's Minimum 50°F approx.
Yesterday's Heating Degree Days 9 approx.
Sunrise5:38 AM JST
Sunset6:59 PM JST
Moon Rise3:10 PM JST
Moon Set3:29 AM JST
Moon PhaseMoon Phase
Waxing Gibbous
Raw METARMETAR RJFS 260300Z 04012KT CAVOK 21/05 Q1013


Monday
. High: 73° F.
Tuesday
. High: 71° F.
Wednesday
. High: 68° F.
Thursday
. High: 71° F.
Friday
. High: 69° F.
Saturday
. High: 73° F.
Sunday
. High: 75° F.
Monday
. High: 75° F.

Units: English | Metric

Find the Weather for any City, State or Zipcode, or Country:

U.S. State List | Severe Weather | Tropical Storms | Ski Conditions
United States | Canada | Central America | South America | Asia | Europe | Australia | Africa | Islands

Weather Underground

© Copyright 2018
The Weather Company, LLC